Kansas City, Missouri
Traffic Map
Current Weather Conditions
Kansas City, Missouri
Overcast
Overcast
81°
Feels Like: 87°
Wind Chill: 81° Ceiling: 1500
Heat Index: 87° Visibility: 10mi
Dew Point: 75° Wind: 7mph
Humidity: 82% Direction: 50° (NE)
Pressure: 29.96in Gusts: 0mph
Raw Report DataKMKC 271808Z 05006KT 10SM OVC015 27/24 A2996 RMK AO2 T02720239 $
Traffic Incident Summary
Active as of:
Severity:
Category:
InformationThere was an issue retrieving the traffic information for this location. Please try a different location or try again shortly.
Advertisements